createdAt,value
2022-11-15T00:04:07.001Z,74.83
2022-11-15T00:12:33.199Z,75.02
2022-11-15T00:44:52.751Z,75.90
2022-11-15T01:00:18.405Z,76.78
2022-11-15T01:04:01.268Z,76.87
2022-11-15T03:08:30.278Z,75.23
2022-11-15T07:35:01.358Z,74.65
2022-11-15T07:39:08.014Z,74.41
2022-11-15T08:15:43.900Z,70.38
2022-11-15T08:18:39.279Z,69.28
2022-11-15T08:21:32.385Z,69.30
2022-11-15T08:24:32.798Z,67.83
2022-11-15T08:27:27.648Z,67.06
2022-11-15T08:30:17.186Z,66.04
2022-11-15T08:33:05.904Z,65.10
2022-11-15T08:35:52.642Z,64.28
2022-11-15T08:38:39.382Z,63.64
2022-11-15T08:41:28.753Z,62.17
2022-11-15T08:44:15.383Z,61.99
2022-11-15T08:47:02.282Z,60.97
2022-11-15T08:49:50.238Z,61.17
2022-11-15T08:52:36.724Z,61.13
2022-11-15T08:55:24.853Z,60.38
2022-11-15T08:58:11.595Z,59.75
2022-11-15T09:00:57.995Z,59.44
2022-11-15T09:03:44.653Z,57.80
2022-11-15T09:06:32.676Z,56.40
2022-11-15T09:09:19.174Z,53.41
2022-11-15T09:12:06.110Z,53.17
2022-11-15T09:14:52.469Z,52.67
2022-11-15T09:17:38.933Z,52.63
2022-11-15T09:20:25.489Z,51.59
2022-11-15T09:23:13.541Z,50.12
2022-11-15T09:26:02.694Z,51.44
2022-11-15T09:28:49.377Z,51.22
2022-11-15T09:31:35.659Z,50.08
2022-11-15T09:34:21.992Z,49.92
2022-11-15T09:37:12.146Z,48.54
2022-11-15T09:40:00.274Z,48.55
2022-11-15T09:43:06.877Z,48.41
2022-11-15T09:46:04.031Z,47.12
2022-11-15T09:49:00.153Z,46.82
2022-11-15T09:51:32.141Z,47.98
2022-11-15T09:54:50.903Z,45.88
2022-11-15T09:57:11.658Z,44.45
2022-11-15T10:00:01.372Z,43.86
2022-11-15T10:02:54.987Z,43.46
2022-11-15T10:05:25.748Z,43.43
2022-11-15T10:08:03.074Z,43.46
2022-11-15T10:10:38.680Z,42.41
2022-11-15T10:13:17.788Z,42.69
2022-11-15T10:15:48.639Z,42.38
2022-11-15T10:18:19.119Z,41.38
2022-11-15T10:20:50.642Z,39.65
2022-11-15T10:23:21.948Z,39.00
2022-11-15T10:25:53.621Z,37.39
2022-11-15T10:28:28.653Z,36.91
2022-11-15T10:30:58.240Z,37.06
2022-11-15T10:33:36.699Z,36.49
2022-11-15T10:36:23.206Z,37.31
2022-11-15T10:38:57.880Z,36.20
2022-11-15T10:44:26.581Z,34.88
2022-11-15T10:47:23.590Z,33.13
2022-11-15T10:50:04.814Z,30.97
2022-11-15T10:52:36.752Z,28.79
2022-11-15T10:55:22.185Z,29.88
2022-11-15T10:57:53.658Z,31.04
2022-11-15T11:00:35.926Z,33.03
2022-11-15T11:03:06.713Z,35.20
2022-11-15T11:05:41.749Z,36.08
2022-11-15T11:08:24.126Z,36.51
2022-11-15T11:11:02.604Z,37.26
2022-11-15T11:13:36.072Z,37.79
2022-11-15T11:16:39.214Z,40.20
2022-11-15T11:19:32.497Z,42.12
2022-11-15T11:22:06.115Z,42.86
2022-11-15T11:24:38.629Z,43.24
2022-11-15T11:27:20.664Z,43.79
2022-11-15T11:30:04.253Z,45.00
2022-11-15T11:32:51.346Z,44.59
2022-11-15T11:35:28.310Z,44.95
2022-11-15T11:38:16.275Z,44.10
2022-11-15T11:40:52.443Z,44.11
2022-11-15T11:43:27.987Z,43.06
2022-11-15T11:46:20.295Z,42.42
2022-11-15T11:48:53.582Z,41.60
2022-11-15T11:51:27.835Z,41.65
2022-11-15T11:53:59.458Z,39.42
2022-11-15T11:56:30.947Z,39.95
2022-11-15T11:59:07.767Z,39.85
2022-11-15T12:01:39.694Z,39.27
2022-11-15T12:04:15.858Z,39.91
2022-11-15T12:06:50.307Z,41.68
2022-11-15T12:09:23.868Z,41.06
2022-11-15T12:12:00.289Z,41.80
2022-11-15T12:14:35.151Z,43.45
2022-11-15T12:17:03.319Z,44.74
2022-11-15T12:19:32.999Z,44.26
2022-11-15T12:22:06.909Z,45.43
2022-11-15T12:24:40.074Z,47.40
2022-11-15T12:27:20.628Z,47.73
2022-11-15T12:29:56.553Z,48.44
2022-11-15T12:32:30.445Z,48.89
2022-11-15T12:35:01.289Z,48.59
2022-11-15T12:37:51.452Z,48.23
2022-11-15T12:40:25.574Z,48.46
2022-11-15T12:43:35.224Z,47.83
2022-11-15T12:46:08.147Z,47.23
2022-11-15T12:48:57.695Z,47.95
2022-11-15T12:52:04.388Z,49.57
2022-11-15T12:55:03.942Z,48.92
2022-11-15T12:57:45.435Z,50.20
2022-11-15T13:00:57.354Z,49.93
2022-11-15T13:03:32.336Z,49.79
2022-11-15T13:06:32.030Z,49.87
2022-11-15T13:08:59.910Z,51.19
2022-11-15T13:11:55.361Z,50.71
2022-11-15T13:14:52.931Z,50.73
2022-11-15T13:17:34.524Z,51.07
2022-11-15T13:20:25.797Z,51.72
2022-11-15T13:23:00.225Z,51.84
2022-11-15T13:26:16.896Z,51.77
2022-11-15T13:28:49.604Z,52.73
2022-11-15T13:31:39.630Z,52.81
2022-11-15T13:34:49.893Z,52.38
2022-11-15T13:37:29.442Z,52.47
2022-11-15T13:40:11.899Z,52.96
2022-11-15T13:42:45.502Z,52.81
2022-11-15T13:45:18.403Z,53.85
2022-11-15T13:47:46.404Z,52.96
2022-11-15T13:50:14.871Z,53.50
2022-11-15T13:52:46.844Z,52.96
2022-11-15T13:55:17.297Z,53.39
2022-11-15T13:57:47.561Z,53.49
2022-11-15T14:00:34.040Z,53.48
2022-11-15T14:03:09.229Z,53.48
2022-11-15T14:05:37.300Z,53.37
2022-11-15T14:08:14.986Z,53.65
2022-11-15T14:10:43.014Z,53.60
2022-11-15T14:13:29.458Z,53.85
2022-11-15T14:16:14.882Z,54.34
2022-11-15T14:18:45.519Z,53.95
2022-11-15T14:21:13.509Z,54.93
2022-11-15T14:23:41.470Z,54.09
2022-11-15T14:26:30.153Z,54.77
2022-11-15T14:28:58.104Z,54.31
2022-11-15T14:31:27.302Z,54.39
2022-11-15T14:33:55.451Z,56.12
2022-11-15T14:36:23.472Z,54.92
2022-11-15T14:38:51.551Z,55.70
2022-11-15T14:41:22.575Z,56.31
2022-11-15T14:43:51.557Z,56.36
2022-11-15T14:46:20.770Z,55.25
2022-11-15T14:48:51.470Z,55.58
2022-11-15T14:51:20.713Z,55.03
2022-11-15T14:53:50.316Z,55.03
2022-11-15T14:56:18.631Z,55.73
2022-11-15T14:58:47.403Z,55.96
2022-11-15T15:01:19.952Z,56.20
2022-11-15T15:03:47.844Z,56.35
2022-11-15T15:06:18.516Z,56.78
2022-11-15T15:08:46.890Z,56.63
2022-11-15T15:11:18.302Z,56.88
2022-11-15T15:13:46.062Z,56.49
2022-11-15T15:16:13.767Z,57.08
2022-11-15T15:18:41.567Z,57.19
2022-11-15T15:21:22.122Z,57.20
2022-11-15T15:23:50.161Z,57.18
2022-11-15T15:26:18.297Z,57.02
2022-11-15T15:28:46.159Z,57.32
2022-11-15T15:31:13.947Z,57.00
2022-11-15T15:33:41.785Z,57.67
2022-11-15T15:36:13.087Z,57.30
2022-11-15T15:38:42.959Z,57.62
2022-11-15T15:41:12.776Z,58.21
2022-11-15T15:43:41.260Z,57.99
2022-11-15T15:46:12.003Z,58.18
2022-11-15T15:48:40.428Z,57.57
2022-11-15T15:51:17.042Z,58.32
2022-11-15T15:53:51.552Z,58.28
2022-11-15T15:56:19.298Z,57.88
2022-11-15T15:58:47.083Z,58.24
2022-11-15T16:01:14.908Z,58.37
2022-11-15T16:03:42.739Z,58.33
2022-11-15T16:06:34.312Z,58.66
2022-11-15T16:09:19.476Z,58.98
2022-11-15T16:11:48.187Z,58.63
2022-11-15T16:14:16.010Z,59.01
2022-11-15T16:16:44.155Z,58.92
2022-11-15T16:19:14.591Z,59.07
2022-11-15T16:21:43.139Z,58.56
2022-11-15T16:24:12.604Z,58.91
2022-11-15T16:26:40.988Z,58.54
2022-11-15T16:29:10.216Z,59.05
2022-11-15T16:31:38.192Z,59.23
2022-11-15T16:34:07.139Z,59.22
2022-11-15T16:36:36.465Z,58.92
2022-11-15T16:39:18.073Z,58.89
2022-11-15T16:41:48.153Z,58.91
2022-11-15T16:44:17.440Z,59.07
2022-11-15T16:46:51.855Z,59.21
2022-11-15T16:49:21.173Z,59.21
2022-11-15T16:51:52.228Z,59.40
2022-11-15T16:55:18.515Z,60.26
2022-11-15T16:57:53.741Z,60.69
2022-11-15T17:00:24.282Z,61.13
2022-11-15T17:02:53.703Z,61.17
2022-11-15T17:05:27.367Z,61.14
2022-11-15T17:07:55.465Z,61.57
2022-11-15T17:10:27.306Z,61.37
2022-11-15T17:12:57.059Z,61.80
2022-11-15T17:15:29.896Z,62.10
2022-11-15T17:17:58.375Z,62.24
2022-11-15T17:20:26.720Z,61.84
2022-11-15T17:22:54.649Z,62.04
2022-11-15T17:25:23.763Z,62.21
2022-11-15T17:27:51.586Z,62.65
2022-11-15T17:30:20.393Z,62.42
2022-11-15T17:32:49.688Z,62.36
2022-11-15T17:35:17.571Z,62.25
2022-11-15T17:37:45.389Z,62.51
2022-11-15T17:40:13.783Z,62.96
2022-11-15T17:42:43.229Z,62.85
2022-11-15T17:45:12.227Z,63.14
2022-11-15T17:47:43.219Z,62.88
2022-11-15T17:50:11.779Z,62.91
2022-11-15T17:52:40.281Z,63.08
2022-11-15T17:55:14.818Z,63.41
2022-11-15T17:57:45.537Z,63.17
2022-11-15T18:00:15.000Z,63.39
2022-11-15T18:02:43.046Z,63.65
2022-11-15T18:05:10.939Z,63.88
2022-11-15T18:07:38.942Z,63.80
2022-11-15T18:10:12.616Z,64.34
2022-11-15T18:12:40.597Z,64.55
2022-11-15T18:15:19.156Z,64.89
2022-11-15T18:17:47.102Z,64.90
2022-11-15T18:20:15.079Z,65.10
2022-11-15T18:22:52.297Z,65.71
2022-11-15T18:25:20.268Z,65.80
2022-11-15T18:27:53.033Z,66.42
2022-11-15T18:30:24.276Z,66.40
2022-11-15T18:32:53.855Z,66.80
2022-11-15T18:35:23.731Z,66.69
2022-11-15T18:37:51.977Z,66.82
2022-11-15T18:40:19.781Z,67.47
2022-11-15T18:42:48.090Z,67.46
2022-11-15T18:45:21.502Z,67.36
2022-11-15T18:47:53.928Z,67.50
2022-11-15T18:50:22.035Z,67.90
2022-11-15T18:52:51.284Z,68.08
2022-11-15T18:55:19.606Z,68.42
2022-11-15T18:57:57.600Z,68.68
2022-11-15T19:00:29.928Z,68.70
2022-11-15T19:02:59.619Z,69.33
2022-11-15T19:05:28.510Z,69.37
2022-11-15T19:07:57.150Z,69.77
2022-11-15T19:10:25.202Z,69.51
2022-11-15T19:12:54.146Z,69.78
2022-11-15T19:15:24.907Z,69.92
2022-11-15T19:17:53.583Z,69.84
2022-11-15T19:24:30.967Z,69.88
2022-11-15T19:27:01.902Z,70.44
2022-11-15T19:29:30.989Z,70.62
2022-11-15T19:32:01.071Z,71.14
2022-11-15T19:34:31.110Z,71.01
2022-11-15T19:37:01.220Z,71.23
2022-11-15T19:39:31.418Z,71.27
2022-11-15T19:42:02.055Z,71.30
2022-11-15T19:44:32.420Z,71.58
2022-11-15T19:47:02.694Z,71.21
2022-11-15T19:49:33.149Z,71.26
2022-11-15T19:52:03.021Z,71.58
2022-11-15T19:54:37.676Z,71.67
2022-11-15T19:57:09.511Z,71.81
2022-11-15T19:59:39.377Z,72.12
2022-11-15T20:02:08.854Z,71.49
2022-11-15T20:04:38.145Z,72.00
2022-11-15T20:07:09.835Z,71.97
2022-11-15T20:09:40.279Z,71.92
2022-11-15T20:12:11.930Z,72.23
2022-11-15T20:14:47.034Z,72.40
2022-11-15T20:17:47.175Z,71.99
2022-11-15T20:20:17.474Z,71.89
2022-11-15T20:22:47.929Z,72.30
2022-11-15T20:25:17.609Z,72.21
2022-11-15T20:27:48.051Z,72.76
2022-11-15T20:30:17.062Z,72.06
2022-11-15T20:32:46.244Z,72.44
2022-11-15T20:35:14.403Z,72.53
2022-11-15T20:37:42.417Z,72.42
2022-11-15T20:40:12.237Z,72.66
2022-11-15T20:42:41.010Z,72.62
2022-11-15T20:45:13.377Z,72.81
2022-11-15T20:47:41.790Z,72.60
2022-11-15T20:50:40.422Z,72.79
2022-11-15T20:52:59.012Z,72.93
2022-11-15T20:55:26.979Z,73.22
2022-11-15T20:57:55.312Z,73.25
2022-11-15T21:00:26.082Z,73.31
2022-11-15T21:02:54.181Z,73.24
2022-11-15T21:05:22.567Z,73.36
2022-11-15T21:07:51.518Z,73.01
2022-11-15T21:10:38.740Z,73.34
2022-11-15T21:13:07.171Z,73.43
2022-11-15T21:15:37.618Z,73.20
2022-11-15T21:18:06.909Z,73.48
2022-11-15T21:20:36.710Z,73.05
2022-11-15T21:23:05.675Z,73.45
2022-11-15T21:25:46.706Z,73.27
2022-11-15T21:31:41.494Z,73.23
2022-11-15T21:37:00.736Z,73.30
2022-11-15T21:39:32.536Z,73.24
2022-11-15T21:42:09.320Z,73.14
2022-11-15T21:51:55.751Z,72.85
2022-11-15T21:54:39.200Z,73.38
2022-11-15T21:57:08.900Z,73.36
2022-11-15T21:59:57.987Z,73.47
2022-11-15T22:02:26.095Z,73.64
2022-11-15T22:04:54.635Z,73.72
2022-11-15T22:07:24.400Z,73.27
2022-11-15T22:28:27.860Z,73.42
2022-11-15T22:38:14.599Z,74.15
2022-11-15T22:40:42.875Z,74.29
2022-11-15T22:43:12.770Z,74.70
2022-11-15T22:45:48.788Z,74.57
2022-11-15T22:48:16.590Z,74.50
2022-11-15T22:50:45.142Z,74.27
2022-11-15T22:53:14.253Z,74.71
2022-11-15T22:55:42.904Z,74.67
2022-11-15T22:58:11.232Z,74.35
2022-11-15T23:00:39.128Z,74.49
2022-11-15T23:03:06.852Z,74.42
2022-11-15T23:05:35.202Z,74.74
2022-11-15T23:08:02.949Z,74.51
2022-11-15T23:10:49.428Z,74.48
2022-11-15T23:13:17.213Z,74.69
2022-11-15T23:16:03.518Z,74.48
2022-11-15T23:18:34.731Z,74.55
2022-11-15T23:21:09.605Z,74.66
2022-11-15T23:23:36.715Z,74.88
2022-11-15T23:26:06.784Z,74.82
2022-11-15T23:28:35.898Z,74.76
2022-11-15T23:31:23.234Z,74.60
2022-11-15T23:33:59.828Z,74.69
2022-11-15T23:36:28.773Z,74.88
2022-11-15T23:38:57.020Z,74.85
2022-11-15T23:41:26.759Z,75.17
2022-11-15T23:43:54.524Z,75.23
2022-11-15T23:46:22.380Z,75.12
2022-11-15T23:48:50.108Z,75.06
2022-11-15T23:51:19.271Z,75.41
2022-11-15T23:53:47.077Z,75.34
2022-11-15T23:56:17.535Z,75.18
2022-11-15T23:58:47.507Z,75.43
